Time;durP1;ratioP1;P1;durP2;ratioP2;P2;SDS_P1;SDS_P2;PMS_P1;PMS_P2;Temp;Humidity;BMP_temperature;BMP_pressure;BME280_temperature;BME280_humidity;BME280_pressure;Samples;Min_cycle;Max_cycle;Signal;HPM_P1;HPM_P2
2022/12/08 00:00:54;;;;;;;37.03;20.38;;;1.30;99.90;;;;;;5055008;28;20805;-75
2022/12/08 00:03:19;;;;;;;39.03;20.42;;;1.30;99.90;;;;;;5042728;28;20086;-74
2022/12/08 00:11:18;;;;;;;34.28;18.60;;;1.30;99.90;;;;;;5046042;28;20108;-76
2022/12/08 00:13:44;;;;;;;34.00;19.90;;;1.30;99.90;;;;;;5050530;28;20033;-75
2022/12/08 00:16:10;;;;;;;36.95;21.08;;;1.30;99.90;;;;;;5039929;28;20033;-75
2022/12/08 00:18:36;;;;;;;39.65;20.45;;;1.30;99.90;;;;;;5034653;28;20033;-74
2022/12/08 00:21:02;;;;;;;40.33;23.10;;;1.30;99.90;;;;;;5049983;28;20402;-75
2022/12/08 00:23:28;;;;;;;39.78;20.77;;;1.30;99.90;;;;;;5051914;28;20036;-74
2022/12/08 00:25:53;;;;;;;35.42;20.63;;;1.40;99.90;;;;;;5055716;28;20403;-75
2022/12/08 00:28:19;;;;;;;35.00;21.08;;;1.40;99.90;;;;;;5045405;28;20021;-75
2022/12/08 00:30:45;;;;;;;37.97;20.83;;;1.30;99.90;;;;;;5050926;28;20041;-76
2022/12/08 00:33:11;;;;;;;33.38;20.38;;;1.40;99.90;;;;;;5041102;28;20033;-74
2022/12/08 00:35:37;;;;;;;36.58;20.73;;;1.40;99.90;;;;;;5046984;28;20033;-75
2022/12/08 00:38:02;;;;;;;35.00;21.02;;;1.40;99.90;;;;;;5056096;28;20115;-75
2022/12/08 00:40:28;;;;;;;35.10;21.02;;;1.50;99.90;;;;;;5039030;28;20413;-75
2022/12/08 00:42:54;;;;;;;36.63;20.15;;;1.50;99.90;;;;;;5059111;28;20032;-75
2022/12/08 00:45:19;;;;;;;37.85;21.08;;;1.50;99.90;;;;;;5038441;28;20071;-75
2022/12/08 00:47:45;;;;;;;38.47;21.08;;;1.50;99.90;;;;;;5055289;28;20431;-75
2022/12/08 00:50:11;;;;;;;34.63;21.35;;;1.50;99.90;;;;;;5039298;28;20079;-75
2022/12/08 00:52:36;;;;;;;40.22;20.88;;;1.40;99.90;;;;;;5048577;28;20148;-76
2022/12/08 00:55:03;;;;;;;38.67;19.92;;;1.50;99.90;;;;;;5038935;28;20151;-75
2022/12/08 00:57:30;;;;;;;35.33;19.88;;;1.40;99.90;;;;;;5040350;28;20036;-76
2022/12/08 00:59:56;;;;;;;38.00;21.17;;;1.40;99.90;;;;;;5048312;28;20037;-76
2022/12/08 01:02:22;;;;;;;42.83;21.73;;;1.40;99.90;;;;;;5045217;28;20029;-74
2022/12/08 01:04:47;;;;;;;35.15;21.60;;;1.30;99.90;;;;;;5039449;28;20028;-76
2022/12/08 01:07:13;;;;;;;33.80;20.92;;;1.30;99.90;;;;;;5038058;28;20101;-75
2022/12/08 01:09:39;;;;;;;34.40;20.15;;;1.30;99.90;;;;;;5043069;28;20065;-76
2022/12/08 01:12:05;;;;;;;37.17;20.30;;;1.20;99.90;;;;;;5048879;28;20055;-76
2022/12/08 01:14:31;;;;;;;34.80;19.83;;;1.20;99.90;;;;;;5047322;28;20086;-75
2022/12/08 01:16:56;;;;;;;32.15;18.23;;;1.20;99.90;;;;;;5033017;28;20026;-75
2022/12/08 01:19:22;;;;;;;34.15;18.58;;;1.20;99.90;;;;;;5037535;28;20028;-75
2022/12/08 01:21:48;;;;;;;35.63;20.27;;;1.10;99.90;;;;;;5049854;28;20085;-76
2022/12/08 01:24:19;;;;;;;35.35;20.45;;;1.10;99.90;;;;;;5049176;28;20062;-76
2022/12/08 01:26:46;;;;;;;36.13;19.88;;;1.10;99.90;;;;;;5030976;28;20498;-76
2022/12/08 01:29:12;;;;;;;35.58;20.45;;;1.10;99.90;;;;;;5034940;28;20033;-76
2022/12/08 01:31:38;;;;;;;32.75;18.88;;;1.10;99.90;;;;;;5066781;28;20063;-75
2022/12/08 01:34:05;;;;;;;36.60;20.98;;;1.10;99.90;;;;;;5037559;28;20519;-76
2022/12/08 01:36:35;;;;;;;37.58;20.85;;;1.00;99.90;;;;;;5043292;28;20036;-76
2022/12/08 01:39:02;;;;;;;35.35;20.80;;;0.90;99.90;;;;;;5042769;28;20479;-75
2022/12/08 01:41:31;;;;;;;40.30;20.80;;;0.80;99.90;;;;;;5055325;28;20051;-76
2022/12/08 01:44:07;;;;;;;37.88;20.98;;;0.70;99.90;;;;;;5040692;28;20475;-76
2022/12/08 01:46:35;;;;;;;32.55;19.42;;;0.70;99.90;;;;;;5032766;28;20034;-75
2022/12/08 01:49:12;;;;;;;35.95;21.13;;;0.60;99.90;;;;;;5045290;28;20504;-75
2022/12/08 01:52:01;;;;;;;36.42;20.77;;;0.50;99.90;;;;;;5040784;28;20029;-75
2022/12/08 01:54:39;;;;;;;36.30;20.75;;;0.50;99.90;;;;;;5047065;28;20038;-76
2022/12/08 01:57:14;;;;;;;36.90;21.38;;;0.40;99.90;;;;;;5037489;28;20569;-76
2022/12/08 01:59:45;;;;;;;37.05;21.33;;;0.30;99.90;;;;;;5043816;28;20040;-75
2022/12/08 02:02:11;;;;;;;37.20;19.77;;;0.30;99.90;;;;;;5046060;28;20123;-76
2022/12/08 02:04:37;;;;;;;38.90;20.92;;;0.30;99.90;;;;;;5041114;28;20136;-76
2022/12/08 02:07:05;;;;;;;39.30;21.40;;;0.20;99.90;;;;;;5035543;28;20020;-76
2022/12/08 02:09:31;;;;;;;44.38;23.13;;;0.20;99.90;;;;;;5043520;28;20405;-76
2022/12/08 02:11:58;;;;;;;38.63;21.13;;;0.20;99.90;;;;;;5051737;28;20028;-76
2022/12/08 02:14:24;;;;;;;36.83;21.77;;;0.10;99.90;;;;;;5037924;28;20068;-75
2022/12/08 02:17:15;;;;;;;37.15;21.30;;;0.10;99.90;;;;;;5068365;28;20064;-76
2022/12/08 02:20:14;;;;;;;41.25;22.20;;;0.00;99.90;;;;;;5038654;28;20032;-75
2022/12/08 02:23:17;;;;;;;40.47;21.90;;;-0.10;99.90;;;;;;5045346;28;20043;-76
2022/12/08 02:25:55;;;;;;;44.10;22.33;;;-0.10;99.90;;;;;;5041115;28;20281;-76
2022/12/08 02:28:59;;;;;;;45.30;23.92;;;-0.10;99.90;;;;;;5047534;28;20123;-76
2022/12/08 02:31:36;;;;;;;40.83;21.00;;;-0.10;99.90;;;;;;5030599;28;20044;-75
2022/12/08 02:34:24;;;;;;;46.83;23.23;;;-0.10;99.90;;;;;;5051306;28;20038;-76
2022/12/08 02:37:06;;;;;;;45.72;23.45;;;-0.10;99.90;;;;;;5032799;28;20128;-76
2022/12/08 02:39:51;;;;;;;43.22;23.65;;;-0.10;99.90;;;;;;5039018;28;20424;-76
2022/12/08 02:42:29;;;;;;;38.65;22.08;;;-0.10;99.90;;;;;;5045150;28;20033;-75
2022/12/08 02:45:13;;;;;;;40.95;21.85;;;-0.10;99.90;;;;;;5043932;28;20040;-76
2022/12/08 02:47:39;;;;;;;41.22;20.90;;;-0.10;99.90;;;;;;5044900;28;20040;-76
2022/12/08 02:50:06;;;;;;;44.75;22.63;;;-0.10;99.90;;;;;;5028291;28;20033;-76
2022/12/08 02:52:32;;;;;;;43.85;23.75;;;-0.20;99.90;;;;;;5036409;28;20029;-75
2022/12/08 02:55:27;;;;;;;36.75;21.83;;;-0.20;99.90;;;;;;5039984;28;20815;-76
2022/12/08 02:58:30;;;;;;;37.95;21.58;;;-0.20;99.90;;;;;;5043168;28;20083;-75
2022/12/08 03:01:14;;;;;;;44.25;23.20;;;-0.20;99.90;;;;;;5029535;28;20068;-75
2022/12/08 03:03:45;;;;;;;38.38;21.40;;;-0.30;99.90;;;;;;5041232;28;20036;-76
2022/12/08 03:06:29;;;;;;;40.58;22.05;;;-0.30;99.90;;;;;;5053790;28;20024;-76
2022/12/08 03:08:58;;;;;;;42.45;22.70;;;-0.30;99.90;;;;;;5043977;28;20490;-77
2022/12/08 03:11:38;;;;;;;41.42;23.13;;;-0.30;99.90;;;;;;5035210;28;20079;-76
2022/12/08 03:14:06;;;;;;;39.13;20.80;;;-0.30;99.90;;;;;;5039962;28;20550;-76
2022/12/08 03:16:35;;;;;;;39.72;21.88;;;-0.40;99.90;;;;;;5039637;28;20064;-76
2022/12/08 03:19:34;;;;;;;42.22;22.52;;;-0.40;99.90;;;;;;5037643;28;20021;-75
2022/12/08 03:22:02;;;;;;;39.72;21.90;;;-0.40;99.90;;;;;;5032051;28;20079;-76
2022/12/08 03:24:36;;;;;;;39.55;22.20;;;-0.40;99.90;;;;;;5032856;28;20025;-76
2022/12/08 03:27:03;;;;;;;37.25;21.50;;;-0.50;99.90;;;;;;5046498;28;20036;-76
2022/12/08 03:29:30;;;;;;;42.90;23.20;;;-0.50;99.90;;;;;;5043340;28;20037;-75
2022/12/08 03:32:38;;;;;;;43.30;22.40;;;-0.50;99.90;;;;;;5036369;28;20037;-75
2022/12/08 03:35:08;;;;;;;39.47;22.15;;;-0.50;99.90;;;;;;5024901;28;20084;-76
2022/12/08 03:37:38;;;;;;;38.72;22.42;;;-0.50;99.90;;;;;;5051862;28;20038;-76
2022/12/08 03:40:07;;;;;;;47.80;23.15;;;-0.50;99.90;;;;;;5035786;28;20032;-75
2022/12/08 03:42:32;;;;;;;48.00;22.85;;;-0.50;99.90;;;;;;5045990;28;20067;-76
2022/12/08 03:44:58;;;;;;;46.10;22.67;;;-0.50;99.90;;;;;;5041857;28;20060;-75
2022/12/08 03:47:24;;;;;;;48.42;22.73;;;-0.50;99.90;;;;;;5046274;28;20395;-75
2022/12/08 03:49:49;;;;;;;42.95;23.60;;;-0.50;99.90;;;;;;5042975;28;20759;-75
2022/12/08 03:52:15;;;;;;;42.83;22.40;;;-0.50;99.90;;;;;;5041595;28;20028;-76
2022/12/08 03:54:40;;;;;;;41.28;22.13;;;-0.60;99.90;;;;;;5032102;28;20029;-75
2022/12/08 03:57:06;;;;;;;42.70;22.00;;;-0.60;99.90;;;;;;5073138;28;20034;-75
2022/12/08 03:59:32;;;;;;;43.60;23.38;;;-0.70;99.90;;;;;;5043111;28;20037;-75
2022/12/08 04:01:57;;;;;;;46.45;23.05;;;-0.80;99.90;;;;;;5031520;28;20030;-76
2022/12/08 04:04:23;;;;;;;50.47;24.25;;;-0.80;99.90;;;;;;5037045;28;20059;-76
2022/12/08 04:06:49;;;;;;;48.17;24.40;;;-0.90;99.90;;;;;;5044713;28;20479;-76
2022/12/08 04:09:15;;;;;;;47.72;25.35;;;-0.90;99.90;;;;;;5035260;28;20037;-76
2022/12/08 04:11:40;;;;;;;49.05;25.10;;;-0.90;99.90;;;;;;5034959;28;20420;-76
2022/12/08 04:14:06;;;;;;;51.33;25.75;;;-1.00;99.90;;;;;;5048712;28;20051;-76
2022/12/08 04:16:32;;;;;;;47.90;25.42;;;-1.10;99.90;;;;;;5040684;28;20040;-76
2022/12/08 04:18:57;;;;;;;45.20;25.08;;;-1.00;99.90;;;;;;5035724;28;20044;-76
2022/12/08 04:21:23;;;;;;;47.22;25.88;;;-1.00;99.90;;;;;;5037794;28;20181;-76
2022/12/08 04:23:49;;;;;;;49.00;24.58;;;-1.00;99.90;;;;;;5035960;28;20038;-76
2022/12/08 04:26:16;;;;;;;47.38;25.15;;;-1.00;99.90;;;;;;5036050;28;20021;-76
2022/12/08 04:28:41;;;;;;;45.33;24.80;;;-1.10;99.90;;;;;;5036384;28;20029;-76
2022/12/08 04:31:07;;;;;;;46.35;25.17;;;-1.20;99.90;;;;;;5064028;28;20585;-76
2022/12/08 04:33:34;;;;;;;50.53;24.85;;;-1.30;99.90;;;;;;5041225;28;20444;-76
2022/12/08 04:36:00;;;;;;;48.33;25.05;;;-1.30;99.90;;;;;;5048789;28;20672;-76
2022/12/08 04:38:27;;;;;;;53.83;25.58;;;-1.30;99.90;;;;;;5033134;28;20025;-76
2022/12/08 04:40:53;;;;;;;50.17;24.40;;;-1.30;99.90;;;;;;5069443;28;20517;-76
2022/12/08 04:43:18;;;;;;;48.33;25.35;;;-1.40;99.90;;;;;;5032220;28;20026;-76
2022/12/08 04:45:44;;;;;;;47.88;25.02;;;-1.40;99.90;;;;;;5029563;28;20061;-76
2022/12/08 04:48:13;;;;;;;50.03;25.60;;;-1.40;99.90;;;;;;5032603;28;20067;-77
2022/12/08 04:50:40;;;;;;;52.47;24.85;;;-1.40;99.90;;;;;;5030011;28;20045;-76
2022/12/08 04:53:07;;;;;;;48.88;24.45;;;-1.40;99.90;;;;;;5040574;28;20087;-76
2022/12/08 04:55:33;;;;;;;55.95;25.83;;;-1.30;99.90;;;;;;5043678;28;20048;-76
2022/12/08 04:57:58;;;;;;;53.83;25.90;;;-1.20;99.90;;;;;;5041382;28;20091;-77
2022/12/08 05:00:24;;;;;;;47.80;25.23;;;-1.30;99.90;;;;;;5042926;28;20037;-77
2022/12/08 05:02:50;;;;;;;50.03;24.17;;;-1.30;99.90;;;;;;5038278;28;20497;-77
2022/12/08 05:05:15;;;;;;;55.28;25.65;;;-1.40;99.90;;;;;;5031957;28;20402;-76
2022/12/08 05:07:41;;;;;;;44.03;25.70;;;-1.40;99.90;;;;;;5040978;28;20781;-77
2022/12/08 05:10:07;;;;;;;48.60;26.92;;;-1.50;99.90;;;;;;5041554;28;20063;-76
2022/12/08 05:12:34;;;;;;;54.72;27.30;;;-1.50;99.90;;;;;;5042873;28;20548;-77
2022/12/08 05:14:59;;;;;;;46.65;24.80;;;-1.50;99.90;;;;;;5037164;28;20135;-77
2022/12/08 05:17:25;;;;;;;52.28;26.02;;;-1.40;99.90;;;;;;5030441;28;20459;-77
2022/12/08 05:19:51;;;;;;;49.33;26.95;;;-1.40;99.90;;;;;;5043000;28;20087;-78
2022/12/08 05:22:16;;;;;;;53.67;27.13;;;-1.30;99.90;;;;;;5040892;28;20032;-77
2022/12/08 05:24:42;;;;;;;43.03;24.63;;;-1.20;99.90;;;;;;5049038;28;20052;-78
2022/12/08 05:27:08;;;;;;;48.90;25.88;;;-1.20;99.90;;;;;;5056427;28;20119;-78
2022/12/08 05:29:34;;;;;;;44.75;25.10;;;-1.20;99.90;;;;;;5040575;28;20043;-77
2022/12/08 05:32:00;;;;;;;56.22;26.42;;;-1.30;99.90;;;;;;5033831;28;20033;-78
2022/12/08 05:34:25;;;;;;;50.83;25.48;;;-1.30;99.90;;;;;;5031641;28;20037;-77
2022/12/08 05:36:51;;;;;;;44.58;25.67;;;-1.30;99.90;;;;;;5052505;28;20028;-78
2022/12/08 05:39:17;;;;;;;50.22;27.58;;;-1.20;99.90;;;;;;5030019;28;20487;-77
2022/12/08 05:41:43;;;;;;;48.40;25.33;;;-1.20;99.90;;;;;;5048605;28;20032;-77
2022/12/08 05:44:08;;;;;;;48.13;24.95;;;-1.20;99.90;;;;;;5042476;28;20117;-78
2022/12/08 05:46:35;;;;;;;49.97;24.48;;;-1.20;99.90;;;;;;5038665;28;20058;-78
2022/12/08 05:49:01;;;;;;;43.42;24.70;;;-1.20;99.90;;;;;;5031818;28;20029;-78
2022/12/08 05:51:28;;;;;;;44.47;24.38;;;-1.20;99.90;;;;;;5041531;28;20035;-78
2022/12/08 05:53:54;;;;;;;52.95;25.85;;;-1.20;99.90;;;;;;5048863;28;20076;-77
2022/12/08 05:56:21;;;;;;;53.60;26.52;;;-1.20;99.90;;;;;;5054016;28;20032;-77
2022/12/08 05:58:47;;;;;;;47.63;24.77;;;-1.20;99.90;;;;;;5058273;28;20028;-77
2022/12/08 06:01:30;;;;;;;48.83;24.92;;;-1.10;99.90;;;;;;5043221;28;20037;-77
2022/12/08 06:03:58;;;;;;;52.85;26.35;;;-1.10;99.90;;;;;;5047808;28;20029;-78
2022/12/08 06:06:24;;;;;;;50.63;25.95;;;-1.10;99.90;;;;;;5042378;28;20029;-77
2022/12/08 06:08:50;;;;;;;48.50;26.08;;;-1.10;99.90;;;;;;5044959;28;20041;-77
2022/12/08 06:11:28;;;;;;;47.72;25.17;;;-1.20;99.90;;;;;;5041478;28;20044;-78
2022/12/08 06:13:55;;;;;;;47.70;25.10;;;-1.20;99.90;;;;;;5049870;28;20024;-77
2022/12/08 06:16:21;;;;;;;49.22;25.73;;;-1.30;99.90;;;;;;5039480;28;20040;-78
2022/12/08 06:18:47;;;;;;;45.20;23.27;;;-1.20;99.90;;;;;;5044867;28;20681;-78
2022/12/08 06:21:15;;;;;;;44.72;24.70;;;-1.20;99.90;;;;;;5049824;28;20498;-78
2022/12/08 06:23:41;;;;;;;51.55;25.17;;;-1.20;99.90;;;;;;5050346;28;20041;-78
2022/12/08 06:26:10;;;;;;;48.70;26.58;;;-1.30;99.90;;;;;;5041576;28;20119;-77
2022/12/08 06:28:36;;;;;;;46.75;25.42;;;-1.30;99.90;;;;;;5039006;28;20417;-78
2022/12/08 06:31:19;;;;;;;44.75;24.58;;;-1.30;99.90;;;;;;5038444;28;20037;-78
2022/12/08 06:33:45;;;;;;;45.67;23.92;;;-1.20;99.90;;;;;;5043294;28;20037;-78
2022/12/08 06:36:13;;;;;;;46.28;25.35;;;-1.30;99.90;;;;;;5040229;28;20037;-78
2022/12/08 06:38:39;;;;;;;40.45;22.38;;;-1.30;99.90;;;;;;5042985;28;20498;-79
2022/12/08 06:41:06;;;;;;;43.33;23.33;;;-1.30;99.90;;;;;;5037332;28;20114;-78
2022/12/08 06:43:32;;;;;;;46.88;24.92;;;-1.30;99.90;;;;;;5040802;28;20037;-78
2022/12/08 06:45:58;;;;;;;45.00;23.90;;;-1.40;99.90;;;;;;5040211;28;20450;-78
2022/12/08 06:48:24;;;;;;;42.10;23.83;;;-1.40;99.90;;;;;;5037093;28;20106;-78
2022/12/08 06:50:50;;;;;;;42.90;22.75;;;-1.40;99.90;;;;;;5042949;28;20072;-78
2022/12/08 06:53:16;;;;;;;44.40;23.92;;;-1.40;99.90;;;;;;5039338;28;20025;-78
2022/12/08 06:55:51;;;;;;;47.95;22.45;;;-1.40;99.90;;;;;;5039466;28;20029;-78
2022/12/08 06:58:17;;;;;;;46.85;25.05;;;-1.50;99.90;;;;;;5045958;28;20035;-78
2022/12/08 07:00:43;;;;;;;46.50;24.00;;;-1.60;99.90;;;;;;5036795;28;20116;-78
2022/12/08 07:03:09;;;;;;;45.88;24.45;;;-1.60;99.90;;;;;;5040102;28;20167;-78
2022/12/08 07:05:36;;;;;;;48.85;24.83;;;-1.70;99.90;;;;;;5041954;28;20033;-78
2022/12/08 07:08:02;;;;;;;53.65;23.73;;;-1.70;99.90;;;;;;5036741;28;20075;-77
2022/12/08 07:10:28;;;;;;;47.20;24.23;;;-1.70;99.90;;;;;;5063631;28;20478;-78
2022/12/08 07:12:54;;;;;;;45.20;24.38;;;-1.80;99.90;;;;;;5034482;28;20056;-77
2022/12/08 07:15:19;;;;;;;45.38;25.25;;;-1.70;99.90;;;;;;5036152;28;20040;-77
2022/12/08 07:17:46;;;;;;;46.00;24.80;;;-1.70;99.90;;;;;;5040176;28;20025;-78
2022/12/08 07:20:12;;;;;;;51.28;25.40;;;-1.60;99.90;;;;;;5035573;28;20090;-77
2022/12/08 07:22:38;;;;;;;46.92;25.27;;;-1.60;99.90;;;;;;5039902;28;20330;-78
2022/12/08 07:25:04;;;;;;;52.33;26.67;;;-1.60;99.90;;;;;;5040068;28;20075;-77
2022/12/08 07:27:30;;;;;;;48.38;25.52;;;-1.60;99.90;;;;;;5035132;28;20033;-78
2022/12/08 07:29:56;;;;;;;49.88;25.35;;;-1.70;99.90;;;;;;5049321;28;20097;-77
2022/12/08 07:32:21;;;;;;;53.13;26.92;;;-1.80;99.90;;;;;;5036406;28;20037;-77
2022/12/08 07:34:47;;;;;;;45.03;24.60;;;-1.90;99.90;;;;;;5033683;28;20095;-77
2022/12/08 07:37:13;;;;;;;52.72;26.42;;;-2.00;99.90;;;;;;5038059;28;20522;-77
2022/12/08 07:39:38;;;;;;;49.55;26.67;;;-2.00;99.90;;;;;;5030065;28;20041;-77
2022/12/08 07:42:04;;;;;;;60.08;27.52;;;-2.10;99.90;;;;;;5042842;28;20031;-77
2022/12/08 07:44:29;;;;;;;54.83;28.08;;;-2.10;99.90;;;;;;5036443;28;20810;-78
2022/12/08 07:46:55;;;;;;;49.13;26.05;;;-2.10;99.90;;;;;;5028316;28;20986;-78
2022/12/08 07:49:21;;;;;;;58.63;27.42;;;-2.10;99.90;;;;;;5040232;28;20033;-77
2022/12/08 07:51:46;;;;;;;48.22;25.35;;;-2.00;99.90;;;;;;5033755;28;20119;-77
2022/12/08 07:54:12;;;;;;;50.45;25.98;;;-1.90;99.90;;;;;;5039615;28;20037;-77
2022/12/08 07:56:38;;;;;;;54.75;26.00;;;-1.90;99.90;;;;;;5038760;28;20025;-77
2022/12/08 07:59:04;;;;;;;51.35;25.40;;;-1.90;99.90;;;;;;5030268;28;20059;-78
2022/12/08 08:01:32;;;;;;;54.53;26.38;;;-1.80;99.90;;;;;;5033826;28;20534;-78
2022/12/08 08:04:01;;;;;;;52.13;26.38;;;-1.80;99.90;;;;;;5044972;28;20053;-78
2022/12/08 08:06:27;;;;;;;53.20;26.60;;;-1.70;99.90;;;;;;5042588;28;20033;-76
2022/12/08 08:08:53;;;;;;;50.33;24.27;;;-1.70;99.90;;;;;;5037501;28;20116;-79
2022/12/08 08:11:19;;;;;;;53.42;26.33;;;-1.70;99.90;;;;;;5035939;28;20460;-78
2022/12/08 08:13:44;;;;;;;45.38;24.52;;;-1.60;99.90;;;;;;5028969;28;20041;-79
2022/12/08 08:16:12;;;;;;;46.35;23.90;;;-1.60;99.90;;;;;;5029456;28;20033;-78
2022/12/08 08:18:38;;;;;;;48.42;24.80;;;-1.60;99.90;;;;;;5036106;28;20120;-79
2022/12/08 08:21:05;;;;;;;47.85;24.98;;;-1.60;99.90;;;;;;5035025;28;20032;-80
2022/12/08 08:23:31;;;;;;;48.90;23.65;;;-1.60;99.90;;;;;;5035194;28;20494;-79
2022/12/08 08:26:02;;;;;;;46.80;23.15;;;-1.60;99.90;;;;;;5046088;28;20033;-78
2022/12/08 08:28:28;;;;;;;52.10;25.27;;;-1.50;99.90;;;;;;5040994;28;20029;-76
2022/12/08 08:30:54;;;;;;;48.30;24.05;;;-1.50;99.90;;;;;;5044693;28;20044;-80
2022/12/08 08:33:20;;;;;;;47.30;24.50;;;-1.40;99.90;;;;;;5043503;28;20048;-79
2022/12/08 08:35:45;;;;;;;54.05;24.95;;;-1.30;99.90;;;;;;5024686;28;20025;-79
2022/12/08 08:38:11;;;;;;;48.58;24.20;;;-1.20;99.90;;;;;;5039053;28;20430;-80
2022/12/08 08:40:37;;;;;;;46.10;22.75;;;-1.10;99.90;;;;;;5037628;28;20462;-79
2022/12/08 08:43:03;;;;;;;49.63;23.80;;;-1.00;99.90;;;;;;5037916;28;20037;-80
2022/12/08 08:45:29;;;;;;;46.88;24.17;;;-1.00;99.90;;;;;;5074535;28;20082;-80
2022/12/08 08:47:55;;;;;;;49.45;24.85;;;-0.90;99.90;;;;;;5033814;28;20025;-80
2022/12/08 08:50:21;;;;;;;55.28;27.17;;;-0.90;99.90;;;;;;5036728;28;20037;-79
2022/12/08 08:52:47;;;;;;;57.60;29.50;;;-0.90;99.90;;;;;;5035694;28;20134;-79
2022/12/08 08:55:12;;;;;;;51.42;27.08;;;-0.90;99.90;;;;;;5054221;28;20041;-80
2022/12/08 08:57:38;;;;;;;47.05;24.33;;;-0.80;99.90;;;;;;5041298;28;20120;-80
2022/12/08 09:00:05;;;;;;;47.65;24.30;;;-0.70;99.90;;;;;;5042204;28;20039;-80
2022/12/08 09:02:30;;;;;;;54.40;25.73;;;-0.70;99.90;;;;;;5037027;28;20143;-81
2022/12/08 09:04:56;;;;;;;47.90;23.58;;;-0.60;99.90;;;;;;5048169;28;20104;-81
2022/12/08 09:07:22;;;;;;;52.05;24.55;;;-0.50;99.90;;;;;;5047607;28;20053;-80
2022/12/08 09:09:48;;;;;;;48.45;24.92;;;-0.20;99.90;;;;;;5031536;28;20033;-79
2022/12/08 09:12:13;;;;;;;40.88;23.27;;;0.00;99.90;;;;;;5047235;28;20183;-80
2022/12/08 09:14:39;;;;;;;45.45;23.52;;;0.40;99.90;;;;;;5047490;28;20021;-79
2022/12/08 09:17:07;;;;;;;45.40;22.55;;;1.00;99.90;;;;;;5047501;28;20446;-79
2022/12/08 09:19:33;;;;;;;31.52;19.52;;;1.50;99.90;;;;;;5042333;28;20159;-78
2022/12/08 09:21:59;;;;;;;30.98;17.10;;;2.20;99.90;;;;;;5037075;28;20060;-76
2022/12/08 09:24:25;;;;;;;33.08;17.90;;;2.60;99.90;;;;;;5036425;28;20087;-79
2022/12/08 09:26:50;;;;;;;28.33;16.42;;;2.80;99.90;;;;;;5038662;28;20037;-78
2022/12/08 09:29:16;;;;;;;27.00;16.23;;;2.90;99.90;;;;;;5039285;28;20107;-77
2022/12/08 09:31:42;;;;;;;28.65;16.00;;;3.10;99.90;;;;;;5035788;28;20132;-78
2022/12/08 09:34:10;;;;;;;24.00;14.77;;;3.40;99.90;;;;;;5037512;28;20120;-77
2022/12/08 09:36:35;;;;;;;25.02;14.85;;;3.90;99.90;;;;;;5042167;28;20033;-77
2022/12/08 09:39:02;;;;;;;25.38;14.90;;;4.60;99.90;;;;;;5052475;28;20040;-77
2022/12/08 09:41:52;;;;;;;24.85;13.23;;;4.80;99.90;;;;;;5040191;28;20036;-77
2022/12/08 09:44:37;;;;;;;;;;;4.80;99.90;;;;;;5045258;28;20021;-77
2022/12/08 09:47:05;;;;;;;20.45;13.10;;;5.20;99.90;;;;;;5047251;28;20000;-77
2022/12/08 09:49:42;;;;;;;24.90;14.15;;;4.80;99.90;;;;;;5039594;28;20650;-77
2022/12/08 09:52:22;;;;;;;23.10;12.82;;;4.50;99.90;;;;;;5026779;28;20099;-77
2022/12/08 09:54:48;;;;;;;21.20;12.38;;;5.00;99.90;;;;;;5026310;28;20037;-78
2022/12/08 09:57:20;;;;;;;21.23;13.35;;;5.30;99.90;;;;;;5030899;28;20025;-78
2022/12/08 09:59:56;;;;;;;23.33;12.85;;;4.60;99.90;;;;;;5027201;28;20112;-77
2022/12/08 10:02:25;;;;;;;23.00;12.50;;;4.10;99.90;;;;;;5028192;28;20041;-77
2022/12/08 10:04:54;;;;;;;20.20;11.88;;;3.80;99.90;;;;;;5041133;28;20025;-77
2022/12/08 10:07:46;;;;;;;18.95;11.55;;;3.80;99.90;;;;;;5047398;28;20031;-77
2022/12/08 10:10:34;;;;;;;19.88;12.07;;;3.60;99.90;;;;;;5031062;28;20033;-77
2022/12/08 10:13:15;;;;;;;19.83;11.52;;;3.30;99.90;;;;;;5036742;28;20049;-77
2022/12/08 10:16:20;;;;;;;20.13;12.20;;;3.30;99.90;;;;;;5048465;28;20032;-77
2022/12/08 10:18:54;;;;;;;19.13;11.93;;;3.50;99.90;;;;;;5032503;28;20051;-78
2022/12/08 10:21:25;;;;;;;18.63;11.55;;;3.80;99.90;;;;;;5027688;28;20033;-78
2022/12/08 10:23:57;;;;;;;24.10;13.10;;;4.30;99.90;;;;;;5026315;28;20037;-77
2022/12/08 10:26:23;;;;;;;22.30;12.20;;;3.90;99.90;;;;;;5035662;28;20025;-79
2022/12/08 10:28:49;;;;;;;18.88;11.90;;;3.50;99.90;;;;;;5033941;28;20029;-77
2022/12/08 10:31:26;;;;;;;21.75;12.07;;;3.20;99.90;;;;;;5033807;28;20048;-78
2022/12/08 10:33:57;;;;;;;24.42;13.50;;;3.00;99.90;;;;;;5046204;28;20479;-77
2022/12/08 10:36:45;;;;;;;21.83;13.30;;;2.90;99.90;;;;;;5038517;28;20071;-78
2022/12/08 10:39:33;;;;;;;24.02;12.45;;;2.70;99.90;;;;;;5042272;28;20768;-78
2022/12/08 10:42:08;;;;;;;21.52;12.93;;;2.70;99.90;;;;;;5028269;28;20057;-78
2022/12/08 10:44:53;;;;;;;23.52;13.15;;;2.70;99.90;;;;;;5027747;28;20037;-79
2022/12/08 10:47:21;;;;;;;26.48;15.38;;;2.80;99.90;;;;;;5025741;28;20025;-78
2022/12/08 10:49:47;;;;;;;25.10;14.82;;;3.30;99.90;;;;;;5026767;28;20029;-78
2022/12/08 10:52:30;;;;;;;21.02;13.23;;;3.40;99.90;;;;;;5032985;28;20978;-78
2022/12/08 10:54:59;;;;;;;23.52;13.50;;;3.20;99.90;;;;;;5041765;28;20144;-77
2022/12/08 10:57:25;;;;;;;23.58;13.63;;;3.00;99.90;;;;;;5025554;28;20032;-76
2022/12/08 10:59:57;;;;;;;23.02;13.45;;;2.90;99.90;;;;;;5043018;28;20033;-77
2022/12/08 11:02:23;;;;;;;22.58;12.68;;;3.00;99.90;;;;;;5044835;28;20060;-78
2022/12/08 11:04:57;;;;;;;21.98;13.48;;;3.30;99.90;;;;;;5029427;28;20053;-77
2022/12/08 11:07:23;;;;;;;22.30;13.00;;;3.20;99.90;;;;;;5027062;28;20032;-77
2022/12/08 11:09:54;;;;;;;23.85;12.50;;;3.10;99.90;;;;;;5033942;28;20052;-75
2022/12/08 11:12:21;;;;;;;23.75;12.02;;;3.30;99.90;;;;;;5038253;28;20495;-73
2022/12/08 11:14:57;;;;;;;20.23;11.52;;;4.40;99.90;;;;;;5042446;28;20056;-73
2022/12/08 11:17:25;;;;;;;18.48;10.70;;;6.00;99.90;;;;;;5038740;28;20067;-73
2022/12/08 11:19:55;;;;;;;18.30;11.35;;;5.50;99.90;;;;;;5040379;28;22208;-73
2022/12/08 11:22:44;;;;;;;18.42;10.85;;;4.90;99.90;;;;;;5028315;28;20648;-73
2022/12/08 11:25:11;;;;;;;19.33;11.15;;;4.50;99.90;;;;;;5030213;28;20112;-74
2022/12/08 11:27:40;;;;;;;17.65;10.73;;;4.10;99.90;;;;;;5026746;28;20051;-73
2022/12/08 11:30:17;;;;;;;19.67;10.98;;;3.80;99.90;;;;;;5028765;28;20476;-74
2022/12/08 11:32:45;;;;;;;17.13;10.80;;;3.70;99.90;;;;;;5040124;28;20056;-73
2022/12/08 11:35:28;;;;;;;18.60;11.40;;;3.50;99.90;;;;;;5036993;28;20507;-75
2022/12/08 11:38:15;;;;;;;18.70;11.48;;;3.40;99.90;;;;;;5028402;28;20105;-74
2022/12/08 11:40:43;;;;;;;19.60;11.35;;;3.20;99.90;;;;;;5029264;28;20037;-74
2022/12/08 11:43:26;;;;;;;19.98;10.52;;;3.10;99.90;;;;;;5031713;28;20111;-74
2022/12/08 11:46:00;;;;;;;20.27;11.00;;;3.10;99.90;;;;;;5038167;28;20032;-74
2022/12/08 11:48:31;;;;;;;18.02;11.32;;;3.00;99.90;;;;;;5038373;28;20087;-74
2022/12/08 11:50:59;;;;;;;21.85;11.70;;;3.00;99.90;;;;;;5029546;28;20477;-73
2022/12/08 11:53:48;;;;;;;19.40;10.98;;;3.00;99.90;;;;;;5043045;28;20043;-77
2022/12/08 11:56:48;;;;;;;18.27;11.40;;;3.00;99.90;;;;;;5047773;28;20036;-76
2022/12/08 11:59:26;;;;;;;21.65;11.57;;;3.10;99.90;;;;;;5003641;28;20041;-76
2022/12/08 12:01:52;;;;;;;16.95;10.80;;;3.10;99.90;;;;;;5032325;28;20041;-72
2022/12/08 12:04:43;;;;;;;17.65;10.68;;;3.30;99.90;;;;;;5059789;28;20456;-73
2022/12/08 12:07:42;;;;;;;21.05;10.70;;;3.80;99.90;;;;;;5038226;28;20067;-73
2022/12/08 12:10:44;;;;;;;21.05;10.23;;;3.70;99.90;;;;;;5025943;28;21493;-73
2022/12/08 12:13:15;;;;;;;20.30;11.30;;;3.50;99.90;;;;;;5037353;28;20127;-74
2022/12/08 12:16:18;;;;;;;18.55;10.52;;;3.50;99.90;;;;;;5032593;28;20032;-75
2022/12/08 12:18:52;;;;;;;20.52;11.35;;;3.40;99.90;;;;;;5061748;28;20536;-73
2022/12/08 12:21:21;;;;;;;20.25;10.52;;;3.30;99.90;;;;;;5032424;28;20029;-74
2022/12/08 12:24:18;;;;;;;17.55;10.98;;;3.30;99.90;;;;;;5042896;28;20029;-73
2022/12/08 12:27:17;;;;;;;18.20;10.38;;;3.30;99.90;;;;;;5033046;28;20059;-73
2022/12/08 12:30:03;;;;;;;19.17;10.80;;;3.40;99.90;;;;;;5033118;28;20048;-72
2022/12/08 12:32:57;;;;;;;19.88;10.70;;;3.40;99.90;;;;;;5054604;28;20045;-72
2022/12/08 12:35:29;;;;;;;21.42;10.43;;;3.40;99.90;;;;;;5046373;28;20055;-73
2022/12/08 12:41:20;;;;;;;14.98;10.02;;;4.80;99.90;;;;;;5024058;28;20064;-72
2022/12/08 12:44:11;;;;;;;17.02;10.02;;;5.30;99.90;;;;;;5029213;28;20033;-72
2022/12/08 12:46:36;;;;;;;18.73;10.10;;;4.90;99.90;;;;;;5028444;28;20025;-72
2022/12/08 12:49:36;;;;;;;18.30;11.52;;;4.60;99.90;;;;;;5027657;28;20044;-72
2022/12/08 12:52:09;;;;;;;18.38;10.90;;;4.40;99.90;;;;;;5043202;28;20662;-73
2022/12/08 12:54:35;;;;;;;18.55;11.30;;;4.50;99.90;;;;;;5049095;28;20029;-73
2022/12/08 12:57:03;;;;;;;18.58;10.98;;;5.10;99.90;;;;;;5049315;28;20032;-72